createdAt,value
2022-08-17T00:00:35.007Z,101205.50
2022-08-17T00:03:10.369Z,101198.50
2022-08-17T00:05:48.762Z,101186.81
2022-08-17T00:08:18.108Z,101193.94
2022-08-17T00:10:46.072Z,101186.66
2022-08-17T00:13:21.523Z,101184.63
2022-08-17T00:15:48.744Z,101179.50
2022-08-17T00:19:02.128Z,101178.06
2022-08-17T00:21:10.474Z,101174.31
2022-08-17T00:23:38.682Z,101180.63
2022-08-17T00:26:14.323Z,101172.31
2022-08-17T00:28:41.341Z,101170.44
2022-08-17T00:31:10.067Z,101167.56
2022-08-17T00:33:38.270Z,101168.44
2022-08-17T00:36:06.257Z,101159.28
2022-08-17T00:38:34.761Z,101150.28
2022-08-17T00:41:13.049Z,101151.84
2022-08-17T00:46:14.581Z,101135.59
2022-08-17T00:48:43.165Z,101151.53
2022-08-17T00:51:18.634Z,101129.72
2022-08-17T00:53:51.406Z,101144.25
2022-08-17T00:56:24.846Z,101139.53
2022-08-17T00:58:53.897Z,101138.50
2022-08-17T01:01:22.136Z,101133.94
2022-08-17T01:03:51.937Z,101135.63
2022-08-17T01:06:20.559Z,101131.22
2022-08-17T01:08:52.181Z,101089.59
2022-08-17T01:11:25.433Z,101121.03
2022-08-17T01:13:52.493Z,101103.09
2022-08-17T01:16:30.246Z,101126.31
2022-08-17T01:19:01.057Z,101121.91
2022-08-17T01:21:50.292Z,101127.50
2022-08-17T01:24:18.015Z,101132.22
2022-08-17T01:26:45.961Z,101104.13
2022-08-17T01:29:13.608Z,101125.25
2022-08-17T01:31:53.973Z,101120.78
2022-08-17T01:34:21.715Z,101114.22
2022-08-17T01:36:50.026Z,101121.34
2022-08-17T01:39:37.472Z,101108.78
2022-08-17T01:42:26.021Z,101111.34
2022-08-17T01:44:58.050Z,101118.47
2022-08-17T01:47:25.032Z,101110.34
2022-08-17T01:49:51.932Z,101113.91
2022-08-17T01:52:19.717Z,101104.75
2022-08-17T01:54:47.958Z,101100.19
2022-08-17T01:57:15.249Z,101094.59
2022-08-17T01:59:42.981Z,101101.72
2022-08-17T02:02:10.340Z,101093.56
2022-08-17T02:04:37.411Z,101094.44
2022-08-17T02:07:04.488Z,101099.00
2022-08-17T02:09:31.657Z,101092.88
2022-08-17T02:12:37.991Z,101088.44
2022-08-17T02:14:47.977Z,101093.03
2022-08-17T02:17:14.893Z,101089.63
2022-08-17T02:19:41.984Z,101089.78
2022-08-17T02:22:09.274Z,101081.78
2022-08-17T02:24:58.322Z,101083.63
2022-08-17T02:27:25.393Z,101081.06
2022-08-17T02:29:52.370Z,101068.50
2022-08-17T02:34:59.413Z,101045.31
2022-08-17T02:37:28.367Z,101071.53
2022-08-17T02:39:59.639Z,101071.69
2022-08-17T02:42:35.595Z,101068.13
2022-08-17T02:45:06.066Z,101070.81
2022-08-17T02:47:33.766Z,101076.25
2022-08-17T02:50:00.772Z,101088.13
2022-08-17T02:52:42.443Z,101065.84
2022-08-17T02:55:27.052Z,101061.59
2022-08-17T02:57:54.395Z,101077.34
2022-08-17T03:00:27.025Z,101062.22
2022-08-17T03:02:56.491Z,101061.50
2022-08-17T03:05:47.519Z,101047.69
2022-08-17T03:08:35.248Z,101059.09
2022-08-17T03:11:22.139Z,101059.41
2022-08-17T03:14:09.654Z,101059.56
2022-08-17T03:16:56.558Z,101063.25
2022-08-17T03:19:43.609Z,101065.59
2022-08-17T03:22:36.828Z,101060.44
2022-08-17T03:25:26.550Z,101053.28
2022-08-17T03:28:14.556Z,101051.59
2022-08-17T03:31:01.776Z,101048.00
2022-08-17T03:33:49.272Z,101044.47
2022-08-17T03:36:36.298Z,101039.03
2022-08-17T03:39:24.078Z,101048.16
2022-08-17T03:42:31.119Z,101042.06
2022-08-17T03:45:18.226Z,101042.22
2022-08-17T03:48:05.254Z,101035.06
2022-08-17T03:50:50.922Z,101030.81
2022-08-17T03:53:38.404Z,101030.94
2022-08-17T03:56:25.858Z,101036.38
2022-08-17T03:59:21.218Z,101038.22
2022-08-17T04:02:15.232Z,101029.25
2022-08-17T04:05:02.652Z,101024.81
2022-08-17T04:07:51.172Z,101030.09
2022-08-17T04:10:41.268Z,101028.53
2022-08-17T04:13:32.125Z,101006.03
2022-08-17T04:16:19.237Z,101023.41
2022-08-17T04:19:06.133Z,101023.56
2022-08-17T04:21:54.083Z,101019.16
2022-08-17T04:24:41.045Z,101020.31
2022-08-17T04:27:28.193Z,101018.44
2022-08-17T04:30:15.267Z,101012.47
2022-08-17T04:33:23.194Z,101016.88
2022-08-17T04:36:12.819Z,101015.03
2022-08-17T04:39:01.658Z,101008.75
2022-08-17T04:41:46.957Z,101007.03
2022-08-17T04:44:37.586Z,101007.91
2022-08-17T04:47:25.111Z,100991.94
2022-08-17T04:50:12.269Z,100997.06
2022-08-17T04:53:06.328Z,100980.63
2022-08-17T04:55:53.333Z,100990.47
2022-08-17T04:58:40.862Z,100995.88
2022-08-17T05:01:27.926Z,100996.59
2022-08-17T05:04:33.392Z,100999.16
2022-08-17T05:07:25.402Z,101008.84
2022-08-17T05:10:14.125Z,101002.28
2022-08-17T05:13:01.346Z,101010.09
2022-08-17T05:15:49.091Z,101002.88
2022-08-17T05:18:37.355Z,101022.50
2022-08-17T05:21:25.552Z,101022.34
2022-08-17T05:24:38.374Z,101029.47
2022-08-17T05:27:20.818Z,101042.06
2022-08-17T05:30:07.884Z,101050.06
2022-08-17T05:32:55.253Z,101070.91
2022-08-17T05:35:44.320Z,101079.91
2022-08-17T05:38:31.486Z,101094.44
2022-08-17T05:41:20.566Z,101096.19
2022-08-17T05:44:07.613Z,101082.47
2022-08-17T05:47:00.360Z,101073.47
2022-08-17T05:49:49.022Z,101074.06
2022-08-17T05:52:54.429Z,101075.31
2022-08-17T05:56:01.774Z,101074.78
2022-08-17T05:58:56.589Z,101037.06
2022-08-17T06:02:09.596Z,101027.53
2022-08-17T06:05:15.377Z,101015.31
2022-08-17T06:08:26.109Z,101018.63
2022-08-17T06:11:27.051Z,101008.69
2022-08-17T06:14:17.713Z,100997.13
2022-08-17T06:17:08.774Z,100991.72
2022-08-17T06:20:00.585Z,101016.94
2022-08-17T06:22:53.353Z,100999.00
2022-08-17T06:25:56.534Z,101007.13
2022-08-17T06:28:55.602Z,101020.53
2022-08-17T06:31:51.128Z,100988.75
2022-08-17T06:34:38.565Z,101054.88
2022-08-17T06:37:40.106Z,101048.88
2022-08-17T06:40:53.238Z,101047.59
2022-08-17T06:44:43.739Z,101038.91
2022-08-17T06:47:47.021Z,101024.41
2022-08-17T06:50:59.580Z,101027.25
2022-08-17T06:53:55.569Z,101017.25
2022-08-17T06:57:01.553Z,101020.38
2022-08-17T07:00:01.206Z,101024.63
2022-08-17T07:03:16.161Z,101000.13
2022-08-17T07:06:11.822Z,100989.59
2022-08-17T07:09:21.210Z,100996.28
2022-08-17T07:12:10.794Z,101005.13
2022-08-17T07:15:03.232Z,101006.56
2022-08-17T07:17:50.504Z,100991.72
2022-08-17T07:20:41.856Z,100997.56
2022-08-17T07:23:31.539Z,101000.88
2022-08-17T07:26:26.468Z,101013.84
2022-08-17T07:29:14.844Z,101006.31
2022-08-17T07:32:01.812Z,101012.41
2022-08-17T07:34:48.868Z,101020.38
2022-08-17T07:37:39.572Z,101008.44
2022-08-17T07:40:43.429Z,101015.25
2022-08-17T07:43:41.529Z,101015.69
2022-08-17T07:46:30.132Z,101010.81
2022-08-17T07:49:23.350Z,101008.38
2022-08-17T07:52:47.508Z,101017.81
2022-08-17T07:55:17.693Z,101013.78
2022-08-17T07:58:16.077Z,101006.09
2022-08-17T08:01:03.555Z,101004.78
2022-08-17T08:03:52.415Z,101001.47
2022-08-17T08:06:43.781Z,100999.19
2022-08-17T08:09:49.330Z,101005.72
2022-08-17T08:13:03.188Z,101015.00
2022-08-17T08:16:04.361Z,101002.56
2022-08-17T08:18:56.768Z,101006.38
2022-08-17T08:21:47.019Z,101011.06
2022-08-17T08:25:09.310Z,101001.31
2022-08-17T08:28:02.134Z,100998.16
2022-08-17T08:30:55.060Z,101004.00
2022-08-17T08:33:25.366Z,100995.56
2022-08-17T08:36:58.125Z,100996.25
2022-08-17T08:40:18.741Z,100995.56
2022-08-17T08:43:26.647Z,100999.66
2022-08-17T08:46:49.995Z,100996.09
2022-08-17T08:50:04.407Z,101003.91
2022-08-17T08:53:07.399Z,100996.94
2022-08-17T08:55:57.592Z,101003.41
2022-08-17T08:59:12.453Z,100995.41
2022-08-17T09:02:22.188Z,100995.25
2022-08-17T09:05:23.024Z,101001.34
2022-08-17T09:08:20.603Z,101001.22
2022-08-17T09:11:30.609Z,101007.03
2022-08-17T09:14:28.297Z,101003.72
2022-08-17T09:17:36.949Z,100995.13
2022-08-17T09:20:35.925Z,100993.97
2022-08-17T09:23:28.991Z,100985.22
2022-08-17T09:26:23.087Z,100994.59
2022-08-17T09:29:16.893Z,100987.88
2022-08-17T09:32:11.793Z,100998.28
2022-08-17T09:35:08.281Z,101003.41
2022-08-17T09:38:14.757Z,100996.25
2022-08-17T09:41:29.638Z,100994.25
2022-08-17T09:44:33.980Z,100979.66
2022-08-17T09:47:30.016Z,100976.72
2022-08-17T09:50:55.447Z,100981.72
2022-08-17T09:53:13.665Z,100978.28
2022-08-17T09:56:00.083Z,100972.69
2022-08-17T09:58:29.125Z,100983.41
2022-08-17T10:01:17.363Z,100972.38
2022-08-17T10:04:20.350Z,100961.38
2022-08-17T10:06:50.349Z,100971.06
2022-08-17T10:09:42.795Z,100968.03
2022-08-17T10:12:43.194Z,100959.56
2022-08-17T10:15:38.490Z,100958.28
2022-08-17T10:18:37.902Z,100953.50
2022-08-17T10:21:28.953Z,100947.25
2022-08-17T10:24:31.681Z,100927.47
2022-08-17T10:27:02.136Z,100940.81
2022-08-17T10:29:54.790Z,100919.31
2022-08-17T10:32:32.440Z,100942.19
2022-08-17T10:35:34.204Z,100942.72
2022-08-17T10:38:24.574Z,100946.16
2022-08-17T10:41:16.264Z,100935.28
2022-08-17T10:44:38.353Z,100926.13
2022-08-17T10:47:08.156Z,100921.56
2022-08-17T10:49:37.362Z,100920.06
2022-08-17T10:52:27.480Z,100924.84
2022-08-17T10:54:58.096Z,100925.22
2022-08-17T10:57:28.290Z,100934.75
2022-08-17T10:59:56.697Z,100920.50
2022-08-17T11:02:27.548Z,100922.34
2022-08-17T11:05:08.910Z,100927.78
2022-08-17T11:07:49.762Z,100930.66
2022-08-17T11:10:54.933Z,100936.25
2022-08-17T11:13:59.278Z,100941.84
2022-08-17T11:16:29.393Z,100938.44
2022-08-17T11:19:15.322Z,100946.72
2022-08-17T11:22:19.775Z,100940.78
2022-08-17T11:24:51.421Z,100954.53
2022-08-17T11:27:36.046Z,100944.09
2022-08-17T11:30:10.960Z,100959.03
2022-08-17T11:32:52.996Z,100962.06
2022-08-17T11:35:21.870Z,100954.22
2022-08-17T11:38:14.021Z,100935.84
2022-08-17T11:40:58.714Z,100943.84
2022-08-17T11:43:42.978Z,100955.72
2022-08-17T11:46:51.899Z,100948.72
2022-08-17T11:49:58.166Z,100953.78
2022-08-17T11:53:06.477Z,100944.69
2022-08-17T11:55:53.535Z,100943.75
2022-08-17T11:58:49.742Z,100944.22
2022-08-17T12:01:42.845Z,100942.63
2022-08-17T12:04:41.954Z,100935.50
2022-08-17T12:07:40.673Z,100944.97
2022-08-17T12:10:28.313Z,100947.16
2022-08-17T12:13:15.737Z,100938.75
2022-08-17T12:16:06.499Z,100941.06
2022-08-17T12:18:56.061Z,100949.34
2022-08-17T12:21:45.869Z,100954.56
2022-08-17T12:24:58.612Z,100947.03
2022-08-17T12:28:05.469Z,100954.78
2022-08-17T12:30:55.428Z,100917.81
2022-08-17T12:33:45.094Z,100912.97
2022-08-17T12:36:35.266Z,100949.84
2022-08-17T12:39:27.453Z,100950.47
2022-08-17T12:42:21.629Z,100952.06
2022-08-17T12:45:08.594Z,100957.03
2022-08-17T12:47:57.378Z,100947.53
2022-08-17T12:50:44.464Z,100959.78
2022-08-17T12:53:37.918Z,100948.69
2022-08-17T12:56:31.416Z,100929.66
2022-08-17T12:59:18.406Z,100947.03
2022-08-17T13:02:17.854Z,100941.06
2022-08-17T13:05:05.297Z,100947.91
2022-08-17T13:07:46.596Z,100926.69
2022-08-17T13:10:18.809Z,100938.69
2022-08-17T13:12:45.874Z,100946.81
2022-08-17T13:15:47.009Z,100943.22
2022-08-17T13:18:39.120Z,100934.25
2022-08-17T13:21:18.220Z,100924.16
2022-08-17T13:24:23.175Z,100942.81
2022-08-17T13:27:13.060Z,100932.13
2022-08-17T13:30:02.361Z,100933.13
2022-08-17T13:32:47.309Z,100929.56
2022-08-17T13:35:39.818Z,100930.44
2022-08-17T13:38:17.139Z,100934.69
2022-08-17T13:40:51.955Z,100918.28
2022-08-17T13:43:57.390Z,100908.03
2022-08-17T13:46:31.199Z,100897.19
2022-08-17T13:49:10.249Z,100889.78
2022-08-17T13:51:45.697Z,100904.88
2022-08-17T13:54:34.394Z,100888.75
2022-08-17T13:57:06.665Z,100885.22
2022-08-17T13:59:53.326Z,100897.44
2022-08-17T14:02:26.027Z,100870.97
2022-08-17T14:04:54.741Z,100882.91
2022-08-17T14:07:47.778Z,100867.50
2022-08-17T14:10:17.588Z,100849.41
2022-08-17T14:12:45.404Z,100836.47
2022-08-17T14:15:14.820Z,100824.63
2022-08-17T14:17:41.900Z,100842.72
2022-08-17T14:20:11.833Z,100787.41
2022-08-17T14:22:43.507Z,100853.69
2022-08-17T14:25:12.365Z,100864.69
2022-08-17T14:27:43.580Z,100859.16
2022-08-17T14:30:22.812Z,100869.84
2022-08-17T14:32:52.007Z,100865.00
2022-08-17T14:35:22.501Z,100864.31
2022-08-17T14:37:50.827Z,100872.59
2022-08-17T14:40:20.934Z,100852.28
2022-08-17T14:42:48.235Z,100881.63
2022-08-17T14:45:29.919Z,100906.66
2022-08-17T14:48:02.000Z,100908.69
2022-08-17T14:50:28.948Z,100925.06
2022-08-17T14:52:57.905Z,100940.31
2022-08-17T14:55:25.251Z,100946.88
2022-08-17T14:57:52.646Z,100940.03
2022-08-17T15:00:19.838Z,100936.06
2022-08-17T15:02:58.605Z,100924.63
2022-08-17T15:05:32.496Z,100932.19
2022-08-17T15:08:01.543Z,100945.72
2022-08-17T15:10:30.731Z,100946.56
2022-08-17T15:12:58.311Z,100932.91
2022-08-17T15:15:25.633Z,100920.38
2022-08-17T15:17:52.616Z,100935.19
2022-08-17T15:20:25.458Z,100929.78
2022-08-17T15:22:56.218Z,100942.56
2022-08-17T15:25:25.801Z,100932.91
2022-08-17T15:27:53.760Z,100932.03
2022-08-17T15:30:24.552Z,100930.34
2022-08-17T15:32:54.230Z,100926.06
2022-08-17T15:35:27.868Z,100918.94
2022-08-17T15:38:07.840Z,100933.47
2022-08-17T15:40:41.427Z,100934.34
2022-08-17T15:43:11.659Z,100946.88
2022-08-17T15:45:39.731Z,100961.25
2022-08-17T15:48:07.029Z,100964.94
2022-08-17T15:50:34.005Z,100964.09
2022-08-17T15:53:01.967Z,100956.13
2022-08-17T15:55:30.543Z,100965.09
2022-08-17T15:57:57.759Z,100970.50
2022-08-17T16:00:26.040Z,100971.38
2022-08-17T16:03:44.642Z,100968.94
2022-08-17T16:05:42.113Z,100960.53
2022-08-17T16:08:11.084Z,100956.56
2022-08-17T16:10:38.617Z,100955.41
2022-08-17T16:13:05.991Z,100948.59
2022-08-17T16:15:51.134Z,100942.31
2022-08-17T16:18:26.769Z,100940.75
2022-08-17T16:20:54.958Z,100930.34
2022-08-17T16:23:22.485Z,100938.91
2022-08-17T16:25:53.823Z,100933.50
2022-08-17T16:28:21.897Z,100947.03
2022-08-17T16:30:48.861Z,100941.19
2022-08-17T16:33:16.890Z,100955.44
2022-08-17T16:35:43.998Z,100943.88
2022-08-17T16:38:12.509Z,100941.19
2022-08-17T16:40:59.473Z,100952.13
2022-08-17T16:43:46.333Z,100952.00
2022-08-17T16:46:33.349Z,100957.56
2022-08-17T16:49:34.442Z,100940.72
2022-08-17T16:52:04.821Z,100956.72
2022-08-17T16:54:31.925Z,100963.09
2022-08-17T16:56:59.198Z,100949.41
2022-08-17T16:59:26.539Z,100972.06
2022-08-17T17:02:04.898Z,100971.06
2022-08-17T17:04:34.991Z,100972.22
2022-08-17T17:07:12.122Z,100973.03
2022-08-17T17:09:39.249Z,100990.28
2022-08-17T17:12:17.977Z,100974.19
2022-08-17T17:14:48.025Z,100975.06
2022-08-17T17:17:24.668Z,100978.88
2022-08-17T17:20:02.917Z,100981.44
2022-08-17T17:22:36.030Z,100987.72
2022-08-17T17:25:16.870Z,100984.13
2022-08-17T17:28:05.477Z,100978.72
2022-08-17T17:31:04.864Z,100986.16
2022-08-17T17:33:48.972Z,100981.72
2022-08-17T17:36:48.297Z,100985.88
2022-08-17T17:39:19.662Z,100991.00
2022-08-17T17:41:54.326Z,100986.16
2022-08-17T17:44:33.234Z,100999.13
2022-08-17T17:47:02.137Z,101002.78
2022-08-17T17:49:35.595Z,100996.53
2022-08-17T17:52:14.438Z,101024.31
2022-08-17T17:54:52.586Z,101032.28
2022-08-17T17:57:45.400Z,101031.28
2022-08-17T18:00:21.981Z,101038.41
2022-08-17T18:03:07.766Z,101050.94
2022-08-17T18:05:37.403Z,101047.38
2022-08-17T18:08:10.722Z,101050.94
2022-08-17T18:10:55.235Z,101040.28
2022-08-17T18:13:33.078Z,101014.91
2022-08-17T18:16:01.138Z,101018.50
2022-08-17T18:18:38.187Z,101033.56
2022-08-17T18:21:15.961Z,101033.56
2022-08-17T18:23:48.578Z,101041.69
2022-08-17T18:26:37.700Z,101055.34
2022-08-17T18:29:24.897Z,101064.75
2022-08-17T18:32:16.891Z,101064.16
2022-08-17T18:34:47.912Z,101071.69
2022-08-17T18:37:31.989Z,101058.56
2022-08-17T18:39:59.228Z,101069.25
2022-08-17T18:42:28.867Z,101075.66
2022-08-17T18:44:56.465Z,101080.22
2022-08-17T18:47:27.109Z,101081.09
2022-08-17T18:50:02.296Z,101082.66
2022-08-17T18:52:32.666Z,101078.94
2022-08-17T18:55:01.704Z,101067.97
2022-08-17T18:57:35.958Z,101012.91
2022-08-17T19:00:21.197Z,101061.47
2022-08-17T19:02:54.948Z,101069.44
2022-08-17T19:05:35.970Z,101068.44
2022-08-17T19:08:28.446Z,101082.69
2022-08-17T19:11:01.433Z,101098.78
2022-08-17T19:13:40.061Z,101091.53
2022-08-17T19:16:27.805Z,101111.16
2022-08-17T19:19:14.525Z,101129.13
2022-08-17T19:21:48.210Z,101138.78
2022-08-17T19:24:21.402Z,101136.22
2022-08-17T19:26:57.615Z,101143.75
2022-08-17T19:29:44.211Z,101154.16
2022-08-17T19:32:14.146Z,101157.22
2022-08-17T19:34:43.026Z,101169.47
2022-08-17T19:37:27.356Z,101150.31
2022-08-17T19:43:49.084Z,101173.66
2022-08-17T19:46:41.285Z,101179.41
2022-08-17T19:49:33.497Z,101184.50
2022-08-17T19:53:07.383Z,101182.19
2022-08-17T19:56:30.684Z,101183.47
2022-08-17T19:59:20.557Z,101195.38
2022-08-17T20:02:24.058Z,101192.22
2022-08-17T20:05:13.593Z,101185.75
2022-08-17T20:08:17.265Z,101189.44
2022-08-17T20:11:27.294Z,101200.66
2022-08-17T20:14:31.735Z,101211.13
2022-08-17T20:17:18.627Z,101193.25
2022-08-17T20:20:19.543Z,101208.31
2022-08-17T20:23:48.610Z,101208.13
2022-08-17T20:26:42.182Z,101223.97
2022-08-17T20:29:44.121Z,101227.19
2022-08-17T20:32:48.114Z,101214.72
2022-08-17T20:35:35.006Z,101235.44
2022-08-17T20:38:24.215Z,101241.19
2022-08-17T20:41:14.101Z,101247.97
2022-08-17T20:44:05.808Z,101253.72
2022-08-17T20:46:55.398Z,101267.72
2022-08-17T20:50:08.597Z,101266.63
2022-08-17T20:52:55.690Z,101261.72
2022-08-17T20:55:57.997Z,101265.66
2022-08-17T20:58:44.936Z,101280.34
2022-08-17T21:01:37.655Z,101284.28
2022-08-17T21:04:28.310Z,101284.66
2022-08-17T21:07:49.164Z,101296.78
2022-08-17T21:10:52.831Z,101267.75
2022-08-17T21:13:52.172Z,101294.09
2022-08-17T21:17:10.544Z,101305.38
2022-08-17T21:20:11.932Z,101305.81
2022-08-17T21:23:22.345Z,101315.38
2022-08-17T21:26:30.667Z,101326.63
2022-08-17T21:29:32.015Z,101318.88
2022-08-17T21:32:24.449Z,101323.88
2022-08-17T21:35:27.124Z,101321.63
2022-08-17T21:38:23.625Z,101299.78
2022-08-17T21:41:13.198Z,101336.56
2022-08-17T21:44:09.042Z,101329.66
2022-08-17T21:46:59.510Z,101343.38
2022-08-17T21:49:47.505Z,101341.38
2022-08-17T21:52:37.350Z,101352.16
2022-08-17T21:55:25.126Z,101361.34
2022-08-17T21:58:14.832Z,101362.56
2022-08-17T22:01:03.001Z,101353.72
2022-08-17T22:03:51.318Z,101365.56
2022-08-17T22:06:56.685Z,101352.44
2022-08-17T22:10:01.564Z,101298.22
2022-08-17T22:12:48.616Z,101372.63
2022-08-17T22:15:39.878Z,101369.41
2022-08-17T22:18:30.415Z,101377.69
2022-08-17T22:21:22.634Z,101378.91
2022-08-17T22:24:25.807Z,101380.13
2022-08-17T22:27:29.453Z,101395.63
2022-08-17T22:30:18.771Z,101399.09
2022-08-17T22:33:07.398Z,101416.97
2022-08-17T22:36:05.174Z,101417.28
2022-08-17T22:38:54.856Z,101419.31
2022-08-17T22:41:57.690Z,101421.50
2022-08-17T22:44:47.225Z,101431.47
2022-08-17T22:47:34.307Z,101438.78
2022-08-17T22:50:23.481Z,101435.38
2022-08-17T22:53:21.642Z,101442.03
2022-08-17T22:56:10.013Z,101442.13
2022-08-17T22:59:12.187Z,101413.09
2022-08-17T23:02:00.233Z,101446.25
2022-08-17T23:04:57.605Z,101451.06
2022-08-17T23:07:44.607Z,101454.84
2022-08-17T23:10:32.985Z,101460.34
2022-08-17T23:13:20.546Z,101453.44
2022-08-17T23:16:11.087Z,101454.63
2022-08-17T23:18:58.241Z,101459.34
2022-08-17T23:21:51.753Z,101460.63
2022-08-17T23:24:51.581Z,101484.06
2022-08-17T23:27:40.282Z,101503.09
2022-08-17T23:30:30.073Z,101499.84
2022-08-17T23:33:24.722Z,101516.31
2022-08-17T23:36:11.727Z,101515.66
2022-08-17T23:38:58.700Z,101531.25
2022-08-17T23:41:54.735Z,101538.53
2022-08-17T23:44:41.982Z,101549.50
2022-08-17T23:47:29.771Z,101522.66
2022-08-17T23:50:16.816Z,101554.09
2022-08-17T23:52:46.690Z,101540.31
2022-08-17T23:55:14.609Z,101564.22
2022-08-17T23:57:41.617Z,101563.34
